Latest Weather Observations for Stenhouse Bay

IDS60801

Issued at 3:31 am CST Sunday 29 May 2016 (issued every 30 minutes, with the page automatically refreshed every 10 minutes)

About weather observations | Map of weather stations | Latest weather observations for SA | Other Formats
Station Details ID: 022049 Name: STENHOUSE BAY Lat: -35.28 Lon: 136.94 Height: 42.0 m
Data from the previous 72 hours. | See also: Recent months at Stenhouse Bay
Date/Time
CST
Temp
°C
App
Temp
°C
Dew
Point
Rel
Hum
%
Delta-T
°C
Wind Press
QNH
hPa
Press
MSL
hPa
Rain
since 9 am
mm
Dir
 
Spd
km/h
Gust
km/h
Spd
kts
Gust
kts
29/03:30am 7.9 5.7 7.9 100 0.0 N 9 15 5 8 1017.2 1017.2 0.0
29/03:00am 8.7 6.7 8.7 100 0.0 N 9 13 5 7 1017.2 1017.2 0.0
29/02:30am 9.1 7.2 9.1 100 0.0 N 9 13 5 7 1017.3 1017.3 0.0
29/02:00am 9.2 7.7 9.2 100 0.0 N 7 11 4 6 1017.5 1017.5 0.0
29/01:30am 9.8 8.6 9.7 99 0.0 N 6 6 3 3 1017.6 1017.6 0.0
29/01:00am 10.0 8.9 9.9 99 0.1 N 6 9 3 5 1017.7 1017.7 0.0
29/12:30am 9.6 8.4 9.5 99 0.0 N 6 9 3 5 1017.9 1017.9 0.0
29/12:00am 9.5 8.3 9.4 99 0.0 NNW 6 9 3 5 1018.1 1018.1 0.0
 
Date/Time
CST
Temp
°C
App
Temp
°C
Dew
Point
Rel
Hum
%
Delta-T
°C
Wind Press
QNH
hPa
Press
MSL
hPa
Rain
since 9 am
mm
Dir
 
Spd
km/h
Gust
km/h
Spd
kts
Gust
kts
28/11:30pm 9.7 8.5 9.6 99 0.0 N 6 7 3 4 1018.3 1018.3 0.0
28/11:00pm 9.6 8.4 9.5 99 0.0 N 6 7 3 4 1018.3 1018.3 0.0
28/10:30pm 9.7 8.3 9.6 99 0.0 NNW 7 9 4 5 1018.2 1018.2 0.0
28/10:00pm 9.8 8.6 9.5 98 0.1 N 6 9 3 5 1018.3 1018.3 0.0
28/09:30pm 10.1 8.7 9.0 93 0.5 N 6 9 3 5 1018.5 1018.5 0.0
28/09:00pm 9.9 8.3 7.8 87 1.0 NNW 6 7 3 4 1018.5 1018.5 0.0
28/08:30pm 10.4 8.7 7.5 82 1.4 NNW 6 7 3 4 1018.5 1018.5 0.0
28/08:00pm 11.9 11.1 6.6 70 2.5 CALM 0 4 0 2 1018.3 1018.3 0.0
28/07:30pm 12.7 11.5 6.5 66 3.0 WSW 2 2 1 1 1018.3 1018.3 0.0
28/07:00pm 11.3 9.1 6.2 71 2.4 W 7 7 4 4 1018.2 1018.2 0.0
28/06:30pm 11.4 9.4 6.1 70 2.5 W 6 7 3 4 1018.1 1018.1 0.0
28/06:00pm 11.5 9.6 7.4 76 2.0 W 7 7 4 4 1017.9 1017.9 0.0
28/05:30pm 12.0 9.9 8.1 77 1.9 WSW 9 11 5 6 1017.7 1017.7 0.0
28/05:00pm 13.5 11.6 9.0 74 2.3 WSW 9 11 5 6 1017.5 1017.5 0.0
28/04:30pm 15.2 13.7 9.3 68 3.0 WSW 7 9 4 5 1017.5 1017.5 0.0
28/04:00pm 15.8 14.4 9.7 67 3.2 SW 7 11 4 6 1017.4 1017.4 0.0
28/03:30pm 16.1 14.7 9.5 65 3.4 SW 7 9 4 5 1017.3 1017.3 0.0
28/03:00pm 16.2 14.8 9.4 64 3.5 SSW 7 9 4 5 1017.1 1017.1 0.0
28/02:30pm 15.9 14.3 8.6 62 3.7 S 7 9 4 5 1017.0 1017.0 0.0
28/02:00pm 16.1 15.2 9.3 64 3.5 S 4 7 2 4 1017.0 1017.0 0.0
28/01:30pm 16.0 14.6 8.7 62 3.7 S 6 9 3 5 1017.1 1017.1 0.0
28/01:00pm 16.0 14.5 9.0 63 3.6 SSE 7 9 4 5 1017.2 1017.2 0.0
28/12:30pm 15.9 14.4 9.1 64 3.5 SSE 7 11 4 6 1017.3 1017.3 0.0
28/12:00pm 15.9 13.6 9.1 64 3.5 SSE 11 15 6 8 1017.4 1017.4 0.0
28/11:30am 15.7 12.9 8.7 63 3.6 SSE 13 15 7 8 1017.8 1017.8 0.0
28/11:00am 15.8 13.0 10.1 69 3.0 SSE 15 20 8 11 1017.9 1017.9 0.0
28/10:30am 15.4 11.8 9.7 69 3.0 S 19 22 10 12 1018.0 1018.0 0.0
28/10:00am 15.0 11.4 9.8 71 2.7 S 19 24 10 13 1017.9 1017.9 0.0
28/09:30am 14.6 10.4 9.6 72 2.6 S 22 30 12 16 1017.6 1017.6 0.0
28/09:00am 14.6 9.7 9.8 73 2.5 S 26 32 14 17 1017.2 1017.2 7.4
28/08:30am 14.0 8.2 9.4 74 2.4 S 30 35 16 19 1016.7 1016.7 7.4
28/08:00am 14.0 7.9 9.8 76 2.2 S 32 39 17 21 1016.4 1016.4 7.4
28/07:30am 14.0 8.1 10.6 80 1.8 S 32 41 17 22 1016.2 1016.1 7.4
28/07:00am 14.1 8.3 11.6 85 1.3 S 33 44 18 24 1015.7 1015.6 7.4
28/06:30am 14.0 8.4 12.0 88 1.1 S 33 41 18 22 1015.2 1015.1 7.4
28/06:00am 13.6 8.3 12.5 93 0.6 S 32 41 17 22 1014.7 1014.6 7.4
28/05:30am 13.5 7.2 12.4 93 0.6 S 37 44 20 24 1014.3 1014.2 7.4
28/05:00am 13.2 7.2 12.1 93 0.6 S 35 46 19 25 1013.6 1013.5 7.4
28/04:30am 13.5 7.7 12.7 95 0.4 S 35 46 19 25 1013.2 1013.1 7.4
28/04:00am 13.6 7.6 12.2 91 0.8 S 35 44 19 24 1013.1 1013.0 7.4
28/03:30am 13.3 6.3 12.5 95 0.4 S 41 54 22 29 1012.7 1012.6 7.4
28/03:00am 13.6 6.9 12.2 91 0.8 S 39 48 21 26 1012.5 1012.4 7.4
28/02:30am 13.6 7.5 11.8 89 1.0 S 35 46 19 25 1012.5 1012.4 7.4
28/02:00am 13.8 8.6 12.7 93 0.6 S 32 43 17 23 1012.1 1012.0 7.4
28/01:30am 13.7 8.7 12.1 90 0.9 S 30 41 16 22 1011.6 1011.5 7.4
28/01:00am 13.7 9.3 11.6 87 1.1 SSW 26 37 14 20 1011.2 1011.1 7.4
28/12:30am 13.4 7.7 11.8 90 0.9 S 33 43 18 23 1010.9 1010.8 7.4
28/12:00am 13.4 7.8 12.1 92 0.7 S 33 43 18 23 1010.5 1010.4 7.4
 
Date/Time
CST
Temp
°C
App
Temp
°C
Dew
Point
Rel
Hum
%
Delta-T
°C
Wind Press
QNH
hPa
Press
MSL
hPa
Rain
since 9 am
mm
Dir
 
Spd
km/h
Gust
km/h
Spd
kts
Gust
kts
27/11:30pm 13.3 8.8 12.5 95 0.4 S 28 37 15 20 1010.1 1010.0 7.4
27/11:00pm 13.2 9.9 12.9 98 0.2 SW 22 32 12 17 1009.9 1009.8 7.4
27/10:30pm 13.3 9.3 13.1 99 0.1 WSW 26 37 14 20 1009.7 1009.6 7.4
27/10:00pm 12.3 6.9 11.0 92 0.7 WSW 30 43 16 23 1009.6 1009.5 7.4
27/09:30pm 12.4 8.1 11.9 97 0.3 WSW 26 39 14 21 1009.9 1009.8 7.4
27/09:00pm 11.3 7.0 10.7 96 0.3 WSW 24 35 13 19 1010.0 1009.9 7.2
27/08:36pm 13.8 7.6 9.3 74 2.3 WSW 32 52 17 28 1009.9 1009.8 7.0
27/08:30pm 13.7 7.1 8.7 72 2.5 WSW 33 50 18 27 1009.9 1009.8 7.0
27/08:08pm 13.7 6.6 7.9 68 2.9 WSW 35 54 19 29 1009.9 1009.8 7.0
27/08:00pm 13.8 6.3 8.0 68 2.9 WSW 37 54 20 29 1009.9 1009.8 7.0
27/07:30pm 14.0 5.8 8.4 69 2.8 SW 41 59 22 32 1009.5 1009.4 7.0
27/07:12pm 14.1 6.1 9.1 72 2.5 SW 41 59 22 32 1009.3 1009.2 7.0
27/07:00pm 13.9 4.5 7.0 63 3.4 SW 46 63 25 34 1009.1 1009.0 7.0
27/06:39pm 14.0 4.6 7.3 64 3.3 SW 46 65 25 35 1008.9 1008.8 7.0
27/06:30pm 13.8 4.1 7.6 66 3.1 SW 48 61 26 33 1008.7 1008.6 7.0
27/06:00pm 13.6 7.5 10.6 82 1.6 SW 33 56 18 30 1008.3 1008.2 7.0
27/05:30pm 13.6 6.9 12.2 91 0.8 SW 39 57 21 31 1008.3 1008.2 7.0
27/05:00pm 12.9 5.3 10.4 85 1.3 SW 41 56 22 30 1008.0 1007.9 7.0
27/04:39pm 12.5 7.1 12.3 99 0.1 SW 32 52 17 28 1007.9 1007.8 7.0
27/04:30pm 12.1 6.6 11.9 99 0.1 SSW 32 46 17 25 1007.7 1007.6 6.8
27/04:00pm 11.7 4.3 11.1 96 0.3 SW 41 61 22 33 1007.3 1007.2 6.2
27/03:33pm 11.1 4.0 10.8 98 0.2 SW 39 57 21 31 1007.1 1007.0 5.4
27/03:30pm 11.2 3.7 10.9 98 0.2 SW 41 57 22 31 1007.0 1006.9 5.4
27/03:04pm 11.9 6.3 10.3 90 0.8 WSW 30 54 16 29 1006.5 1006.4 4.8
27/03:00pm 11.8 5.7 10.4 91 0.7 WSW 33 50 18 27 1006.5 1006.4 4.8
27/02:34pm 13.7 6.4 8.7 72 2.5 WSW 37 59 20 32 1006.4 1006.3 4.6
27/02:30pm 13.4 6.1 8.9 74 2.3 WSW 37 54 20 29 1006.4 1006.3 4.6
27/02:00pm 14.0 5.8 9.8 76 2.2 WSW 43 67 23 36 1006.1 1006.1 4.6
27/01:40pm 13.4 5.5 9.3 76 2.1 WSW 41 61 22 33 1006.1 1006.1 4.6
27/01:30pm 13.0 4.7 9.3 78 1.9 WSW 43 57 23 31 1006.1 1006.1 4.6
27/01:10pm 13.9 7.1 10.5 80 1.8 WSW 37 57 20 31 1006.1 1006.1 4.6
27/01:00pm 12.5 5.1 9.9 84 1.3 WSW 39 52 21 28 1006.1 1006.1 4.6
27/12:30pm 11.2 5.0 10.0 92 0.6 WSW 33 48 18 26 1006.5 1006.4 4.6
27/12:14pm 12.0 5.6 10.7 92 0.7 SW 35 56 19 30 1006.7 1006.6 4.0
27/12:00pm 11.2 6.3 10.0 92 0.6 WSW 26 41 14 22 1006.4 1006.3 3.8
27/11:31am 10.0 3.4 9.9 99 0.1 WSW 35 54 19 29 1007.9 1007.8 3.6
27/11:30am 10.1 3.9 10.0 99 0.1 WSW 33 50 18 27 1008.0 1007.9 3.6
27/11:02am 10.4 5.2 10.4 100 0.0 WSW 28 46 15 25 1008.3 1008.2 2.6
27/11:00am 10.5 5.0 10.5 100 0.0 WSW 30 46 16 25 1008.3 1008.2 2.6
27/10:38am 11.8 6.3 10.7 93 0.6 WSW 30 61 16 33 1007.9 1007.8 0.2
27/10:30am 12.8 8.8 11.9 94 0.5 WSW 24 33 13 18 1007.8 1007.7 0.0
27/10:07am 13.0 7.4 12.1 94 0.5 WSW 33 54 18 29 1007.8 1007.7 0.0
27/10:00am 12.7 7.4 11.4 92 0.7 W 30 50 16 27 1007.7 1007.6 0.0
27/09:49am 13.2 8.0 10.4 83 1.5 WNW 28 48 15 26 1007.7 1007.6 0.0
27/09:30am 13.6 7.0 8.7 72 2.5 W 33 48 18 26 1007.6 1007.5 0.0
27/09:00am 15.2 11.4 11.0 76 2.2 W 22 33 12 18 1007.5 1007.4 -
27/08:30am 14.0 10.5 10.8 81 1.7 W 20 32 11 17 1007.4 1007.3 -
27/08:00am 13.4 8.5 10.0 80 1.8 W 26 39 14 21 1007.5 1007.4 -
27/07:30am 13.0 8.8 11.2 89 1.0 W 24 37 13 20 1007.6 1007.5 -
27/07:00am 12.8 8.9 12.0 95 0.4 W 24 37 13 20 1007.6 1007.5 -
27/06:48am 12.8 8.1 11.9 94 0.5 W 28 46 15 25 1007.6 1007.5 -
27/06:30am 12.6 8.8 12.4 99 0.1 W 24 35 13 19 1007.5 1007.4 -
27/06:05am 12.4 7.8 12.4 100 0.0 W 28 46 15 25 1007.7 1007.6 -
27/06:00am 12.5 8.3 12.5 100 0.0 W 26 41 14 22 1007.7 1007.6 -
27/05:30am 12.2 8.3 12.2 100 0.0 WNW 24 39 13 21 1007.6 1007.5 -
27/05:00am 12.9 8.5 12.9 100 0.0 NW 28 50 15 27 1007.6 1007.5 -
27/04:59am 12.9 8.5 12.9 100 0.0 NW 28 50 15 27 1007.6 1007.5 -
27/04:30am 12.8 9.5 12.8 100 0.0 NW 22 30 12 16 1007.9 1007.8 -
27/04:00am 12.9 10.0 12.9 100 0.0 WNW 20 32 11 17 1008.0 1007.9 -
27/03:30am 13.0 10.1 13.0 100 0.0 WNW 20 35 11 19 1008.5 1008.4 -
27/03:00am 13.4 9.9 13.4 100 0.0 NW 24 39 13 21 1008.7 1008.6 1.0
27/02:30am 12.7 11.1 12.7 100 0.0 NW 13 19 7 10 1008.9 1008.8 -
27/02:04am 12.7 9.9 12.7 100 0.0 NW 19 44 10 24 1008.8 1008.7 -
27/02:00am 13.3 11.9 13.3 100 0.0 NW 13 20 7 11 1008.9 1008.8 -
27/01:30am 12.5 10.4 12.5 100 0.0 NNW 15 19 8 10 1009.1 1009.0 -
27/01:00am 11.8 9.5 11.8 100 0.0 NW 15 17 8 9 1009.5 1009.4 -
27/12:30am 11.4 9.8 11.4 100 0.0 NW 11 13 6 7 1010.0 1009.9 -
27/12:00am 11.1 9.0 11.1 100 0.0 NW 13 15 7 8 1010.4 1010.3 -
 
Date/Time
CST
Temp
°C
App
Temp
°C
Dew
Point
Rel
Hum
%
Delta-T
°C
Wind Press
QNH
hPa
Press
MSL
hPa
Rain
since 9 am
mm
Dir
 
Spd
km/h
Gust
km/h
Spd
kts
Gust
kts
26/11:30pm 11.2 9.1 11.2 100 0.0 NW 13 13 7 7 1010.6 1010.5 -
26/11:00pm 11.0 8.9 11.0 100 0.0 NW 13 13 7 7 1010.7 1010.6 -
26/10:30pm 11.3 9.2 11.3 100 0.0 NW 13 15 7 8 1010.9 1010.8 -
26/10:00pm 11.4 9.0 11.4 100 0.0 WNW 15 17 8 9 1011.2 1011.1 -
26/09:30pm 11.6 9.6 11.6 100 0.0 WNW 13 17 7 9 1011.4 1011.3 -
26/09:00pm 12.1 11.0 12.1 100 0.0 WNW 9 13 5 7 1011.5 1011.4 0.6
26/08:30pm 12.8 11.4 12.3 97 0.3 NW 11 15 6 8 1011.7 1011.6 -
26/08:00pm 12.6 10.8 11.0 90 0.8 W 11 13 6 7 1011.9 1011.8 -
26/07:30pm 12.8 10.6 10.9 88 1.0 W 13 15 7 8 1011.5 1011.4 -
26/07:00pm 13.3 11.1 10.8 85 1.3 W 13 15 7 8 1011.3 1011.2 -
26/06:30pm 13.2 10.9 10.6 84 1.4 W 13 17 7 9 1011.2 1011.1 -
26/06:00pm 13.3 11.1 10.7 84 1.4 W 13 17 7 9 1010.8 1010.7 -
26/05:30pm 13.7 11.5 10.9 83 1.5 W 13 17 7 9 1010.3 1010.2 -
26/05:00pm 14.9 13.4 11.9 82 1.6 W 11 20 6 11 1010.3 1010.2 -
26/04:30pm 16.0 13.3 11.6 75 2.4 WSW 17 26 9 14 1010.3 1010.2 -
26/04:00pm 16.4 13.1 10.9 70 2.9 W 19 28 10 15 1010.0 1009.9 -
26/03:30pm 16.9 14.3 12.0 73 2.7 W 17 24 9 13 1009.8 1009.7 -
26/03:00pm 16.5 13.3 11.4 72 2.8 WSW 19 28 10 15 1009.8 1009.7 -
26/02:30pm 16.9 13.7 11.2 69 3.1 WSW 19 30 10 16 1009.5 1009.4 -
26/12:30pm 16.5 15.1 12.3 76 2.3 SSW 11 15 6 8 1010.3 1010.2 0.0
26/12:00pm 16.8 13.6 11.3 70 3.0 WSW 19 26 10 14 1010.2 1010.1 0.0
26/11:30am 15.9 13.5 11.3 74 2.5 WSW 15 22 8 12 1010.4 1010.3 0.0
26/11:00am 15.6 13.0 10.8 73 2.6 SW 15 22 8 12 1010.5 1010.4 0.0
26/10:30am 15.6 14.6 12.2 80 1.9 SSW 9 11 5 6 1010.5 1010.4 0.0
26/10:00am 15.4 13.6 12.2 81 1.7 SSW 13 19 7 10 1010.4 1010.3 0.0
26/09:30am 15.4 14.2 12.7 84 1.5 SSW 11 19 6 10 1010.2 1010.1 0.0
26/09:00am 14.3 13.8 12.5 89 1.0 SW 7 11 4 6 1009.9 1009.8 7.8
26/08:30am 13.8 11.6 12.0 89 1.0 S 15 19 8 10 1009.7 1009.6 7.8
26/08:00am 13.8 10.9 12.2 90 0.9 SSW 19 26 10 14 1009.4 1009.3 7.8
26/07:30am 13.4 11.0 12.8 96 0.3 SW 17 28 9 15 1009.3 1009.2 7.6
26/07:00am 13.2 11.4 12.1 93 0.6 SW 13 19 7 10 1009.1 1009.0 7.6
26/06:30am 13.0 11.3 12.4 96 0.3 SSW 13 19 7 10 1009.1 1009.0 7.4
26/06:00am 13.1 10.6 12.2 94 0.5 SW 17 26 9 14 1008.9 1008.8 7.4
26/05:30am 12.8 10.5 11.9 94 0.5 SW 15 24 8 13 1008.8 1008.7 7.4
26/05:00am 12.2 6.3 11.3 94 0.5 SW 33 52 18 28 1008.6 1008.5 7.4
26/04:54am 12.9 7.8 11.8 93 0.6 SW 30 52 16 28 1008.4 1008.3 7.0
26/04:30am 13.4 10.5 12.8 96 0.3 SSW 20 30 11 16 1008.1 1008.0 7.0
26/04:00am 13.0 11.4 12.8 99 0.1 SSW 13 24 7 13 1008.1 1008.0 7.0

Other Formats:

Comma delimited format used in spreadsheet applications
http://www.bom.gov.au/fwo/IDS60801/IDS60801.95806.axf

JavaScript Object Notation format (JSON) in row-major order
http://www.bom.gov.au/fwo/IDS60801/IDS60801.95806.json